sensor_id;sensor_type;location;lat;lon;timestamp;temperature;humidity
70550;DHT22;58101;48.658;2.328;2023-03-01T00:02:06;3.00;56.30
70550;DHT22;58101;48.658;2.328;2023-03-01T00:04:32;3.00;56.40
70550;DHT22;58101;48.658;2.328;2023-03-01T00:06:58;2.90;56.70
70550;DHT22;58101;48.658;2.328;2023-03-01T00:09:23;3.00;56.80
70550;DHT22;58101;48.658;2.328;2023-03-01T00:11:49;2.90;56.80
70550;DHT22;58101;48.658;2.328;2023-03-01T00:14:15;2.90;56.90
70550;DHT22;58101;48.658;2.328;2023-03-01T00:16:45;2.80;57.20
70550;DHT22;58101;48.658;2.328;2023-03-01T00:19:16;2.80;57.00
70550;DHT22;58101;48.658;2.328;2023-03-01T00:21:42;2.80;57.30
70550;DHT22;58101;48.658;2.328;2023-03-01T00:24:09;2.80;57.70
70550;DHT22;58101;48.658;2.328;2023-03-01T00:26:35;2.80;57.40
70550;DHT22;58101;48.658;2.328;2023-03-01T00:29:00;2.70;57.70
70550;DHT22;58101;48.658;2.328;2023-03-01T00:31:31;2.70;57.70
70550;DHT22;58101;48.658;2.328;2023-03-01T00:34:02;2.70;57.80
70550;DHT22;58101;48.658;2.328;2023-03-01T00:36:30;2.70;58.00
70550;DHT22;58101;48.658;2.328;2023-03-01T00:38:56;2.60;58.00
70550;DHT22;58101;48.658;2.328;2023-03-01T00:41:22;2.60;58.10
70550;DHT22;58101;48.658;2.328;2023-03-01T00:43:49;2.60;58.20
70550;DHT22;58101;48.658;2.328;2023-03-01T00:46:17;2.60;58.30
70550;DHT22;58101;48.658;2.328;2023-03-01T00:48:43;2.60;58.70
70550;DHT22;58101;48.658;2.328;2023-03-01T00:51:16;2.50;58.80
70550;DHT22;58101;48.658;2.328;2023-03-01T00:53:42;2.50;59.00
70550;DHT22;58101;48.658;2.328;2023-03-01T00:56:09;2.50;59.10
70550;DHT22;58101;48.658;2.328;2023-03-01T00:58:36;2.50;59.40
70550;DHT22;58101;48.658;2.328;2023-03-01T01:01:11;2.40;59.50
70550;DHT22;58101;48.658;2.328;2023-03-01T01:03:50;2.40;59.70
70550;DHT22;58101;48.658;2.328;2023-03-01T01:08:46;2.40;59.90
70550;DHT22;58101;48.658;2.328;2023-03-01T01:11:13;2.30;60.10
70550;DHT22;58101;48.658;2.328;2023-03-01T01:13:39;2.30;60.30
70550;DHT22;58101;48.658;2.328;2023-03-01T01:16:06;2.20;60.40
70550;DHT22;58101;48.658;2.328;2023-03-01T01:18:32;2.20;60.60
70550;DHT22;58101;48.658;2.328;2023-03-01T01:21:04;2.20;60.80
70550;DHT22;58101;48.658;2.328;2023-03-01T01:23:30;2.20;62.00
70550;DHT22;58101;48.658;2.328;2023-03-01T01:25:55;2.20;61.10
70550;DHT22;58101;48.658;2.328;2023-03-01T01:28:21;2.20;61.40
70550;DHT22;58101;48.658;2.328;2023-03-01T01:30:47;2.20;61.50
70550;DHT22;58101;48.658;2.328;2023-03-01T01:33:12;2.10;61.40
70550;DHT22;58101;48.658;2.328;2023-03-01T01:35:38;2.10;62.80
70550;DHT22;58101;48.658;2.328;2023-03-01T01:38:03;2.10;61.80
70550;DHT22;58101;48.658;2.328;2023-03-01T01:40:29;2.10;63.10
70550;DHT22;58101;48.658;2.328;2023-03-01T01:42:55;2.10;62.20
70550;DHT22;58101;48.658;2.328;2023-03-01T01:45:33;2.00;62.20
70550;DHT22;58101;48.658;2.328;2023-03-01T01:48:06;2.00;62.40
70550;DHT22;58101;48.658;2.328;2023-03-01T01:50:32;2.00;62.30
70550;DHT22;58101;48.658;2.328;2023-03-01T01:53:06;2.00;62.50
70550;DHT22;58101;48.658;2.328;2023-03-01T01:55:36;2.00;63.00
70550;DHT22;58101;48.658;2.328;2023-03-01T01:58:05;2.00;63.20
70550;DHT22;58101;48.658;2.328;2023-03-01T02:00:32;1.90;63.50
70550;DHT22;58101;48.658;2.328;2023-03-01T02:03:13;1.90;63.50
70550;DHT22;58101;48.658;2.328;2023-03-01T02:06:04;1.90;63.80
70550;DHT22;58101;48.658;2.328;2023-03-01T02:08:34;1.90;64.40
70550;DHT22;58101;48.658;2.328;2023-03-01T02:11:01;1.90;64.20
70550;DHT22;58101;48.658;2.328;2023-03-01T02:13:30;1.90;64.50
70550;DHT22;58101;48.658;2.328;2023-03-01T02:15:56;1.90;64.70
70550;DHT22;58101;48.658;2.328;2023-03-01T02:18:23;1.80;65.80
70550;DHT22;58101;48.658;2.328;2023-03-01T02:23:24;1.80;65.50
70550;DHT22;58101;48.658;2.328;2023-03-01T02:26:11;1.80;65.50
70550;DHT22;58101;48.658;2.328;2023-03-01T02:28:42;1.80;65.70
70550;DHT22;58101;48.658;2.328;2023-03-01T02:31:10;1.80;66.20
70550;DHT22;58101;48.658;2.328;2023-03-01T02:33:57;1.80;65.80
70550;DHT22;58101;48.658;2.328;2023-03-01T02:36:26;1.70;66.10
70550;DHT22;58101;48.658;2.328;2023-03-01T02:38:57;1.70;66.70
70550;DHT22;58101;48.658;2.328;2023-03-01T02:41:24;1.70;66.90
70550;DHT22;58101;48.658;2.328;2023-03-01T02:43:51;1.70;67.40
70550;DHT22;58101;48.658;2.328;2023-03-01T02:46:23;1.60;67.40
70550;DHT22;58101;48.658;2.328;2023-03-01T02:48:55;1.60;67.70
70550;DHT22;58101;48.658;2.328;2023-03-01T02:56:30;1.60;68.80
70550;DHT22;58101;48.658;2.328;2023-03-01T02:58:56;1.60;69.00
70550;DHT22;58101;48.658;2.328;2023-03-01T03:01:26;1.50;69.20
70550;DHT22;58101;48.658;2.328;2023-03-01T03:04:16;1.50;69.30
70550;DHT22;58101;48.658;2.328;2023-03-01T03:06:46;1.60;69.70
70550;DHT22;58101;48.658;2.328;2023-03-01T03:09:13;1.50;71.00
70550;DHT22;58101;48.658;2.328;2023-03-01T03:11:39;1.50;69.90
70550;DHT22;58101;48.658;2.328;2023-03-01T03:14:07;1.50;70.50
70550;DHT22;58101;48.658;2.328;2023-03-01T03:16:48;1.40;70.70
70550;DHT22;58101;48.658;2.328;2023-03-01T03:19:18;1.40;70.90
70550;DHT22;58101;48.658;2.328;2023-03-01T03:21:44;1.50;71.00
70550;DHT22;58101;48.658;2.328;2023-03-01T03:24:10;1.50;72.50
70550;DHT22;58101;48.658;2.328;2023-03-01T03:26:35;1.40;71.10
70550;DHT22;58101;48.658;2.328;2023-03-01T03:29:01;1.40;71.50
70550;DHT22;58101;48.658;2.328;2023-03-01T03:31:27;1.40;72.00
70550;DHT22;58101;48.658;2.328;2023-03-01T03:33:53;1.40;72.30
70550;DHT22;58101;48.658;2.328;2023-03-01T03:36:23;1.40;72.90
70550;DHT22;58101;48.658;2.328;2023-03-01T03:38:49;1.40;72.70
70550;DHT22;58101;48.658;2.328;2023-03-01T03:41:15;1.40;73.00
70550;DHT22;58101;48.658;2.328;2023-03-01T03:43:42;1.40;74.00
70550;DHT22;58101;48.658;2.328;2023-03-01T03:46:10;1.40;73.10
70550;DHT22;58101;48.658;2.328;2023-03-01T03:48:39;1.30;73.70
70550;DHT22;58101;48.658;2.328;2023-03-01T03:51:06;1.30;74.00
70550;DHT22;58101;48.658;2.328;2023-03-01T03:53:32;1.30;74.40
70550;DHT22;58101;48.658;2.328;2023-03-01T03:55:58;1.30;75.10
70550;DHT22;58101;48.658;2.328;2023-03-01T03:58:25;1.20;75.20
70550;DHT22;58101;48.658;2.328;2023-03-01T04:00:53;1.20;76.40
70550;DHT22;58101;48.658;2.328;2023-03-01T04:03:22;1.20;76.20
70550;DHT22;58101;48.658;2.328;2023-03-01T04:05:48;1.20;76.80
70550;DHT22;58101;48.658;2.328;2023-03-01T04:08:16;1.20;77.10
70550;DHT22;58101;48.658;2.328;2023-03-01T04:10:46;1.10;77.20
70550;DHT22;58101;48.658;2.328;2023-03-01T04:13:15;1.10;78.10
70550;DHT22;58101;48.658;2.328;2023-03-01T04:15:42;1.10;78.20
70550;DHT22;58101;48.658;2.328;2023-03-01T04:18:13;1.10;78.30
70550;DHT22;58101;48.658;2.328;2023-03-01T04:20:39;1.10;78.30
70550;DHT22;58101;48.658;2.328;2023-03-01T04:23:08;1.10;78.50
70550;DHT22;58101;48.658;2.328;2023-03-01T04:25:52;1.10;78.10
70550;DHT22;58101;48.658;2.328;2023-03-01T04:28:23;1.10;78.10
70550;DHT22;58101;48.658;2.328;2023-03-01T04:30:50;1.10;78.70
70550;DHT22;58101;48.658;2.328;2023-03-01T04:33:17;1.10;78.90
70550;DHT22;58101;48.658;2.328;2023-03-01T04:35:43;1.10;79.50
70550;DHT22;58101;48.658;2.328;2023-03-01T04:38:09;1.10;80.30
70550;DHT22;58101;48.658;2.328;2023-03-01T04:40:35;1.00;79.70
70550;DHT22;58101;48.658;2.328;2023-03-01T04:43:01;1.10;79.60
70550;DHT22;58101;48.658;2.328;2023-03-01T04:45:27;1.00;79.90
70550;DHT22;58101;48.658;2.328;2023-03-01T04:47:53;1.10;80.10
70550;DHT22;58101;48.658;2.328;2023-03-01T04:50:20;1.00;80.10
70550;DHT22;58101;48.658;2.328;2023-03-01T04:52:47;1.00;80.20
70550;DHT22;58101;48.658;2.328;2023-03-01T04:55:13;1.00;80.40
70550;DHT22;58101;48.658;2.328;2023-03-01T04:57:39;1.10;80.40
70550;DHT22;58101;48.658;2.328;2023-03-01T05:00:07;1.00;80.10
70550;DHT22;58101;48.658;2.328;2023-03-01T05:02:49;1.00;80.80
70550;DHT22;58101;48.658;2.328;2023-03-01T05:05:39;1.00;81.50
70550;DHT22;58101;48.658;2.328;2023-03-01T05:08:07;1.00;81.80
70550;DHT22;58101;48.658;2.328;2023-03-01T05:10:35;1.00;81.00
70550;DHT22;58101;48.658;2.328;2023-03-01T05:13:01;1.10;81.60
70550;DHT22;58101;48.658;2.328;2023-03-01T05:15:29;1.00;81.50
70550;DHT22;58101;48.658;2.328;2023-03-01T05:17:56;1.00;81.50
70550;DHT22;58101;48.658;2.328;2023-03-01T05:20:28;0.90;82.40
70550;DHT22;58101;48.658;2.328;2023-03-01T05:22:59;1.00;83.60
70550;DHT22;58101;48.658;2.328;2023-03-01T05:25:25;1.00;83.60
70550;DHT22;58101;48.658;2.328;2023-03-01T05:27:54;1.00;83.60
70550;DHT22;58101;48.658;2.328;2023-03-01T05:30:19;0.90;83.30
70550;DHT22;58101;48.658;2.328;2023-03-01T05:32:47;0.90;84.50
70550;DHT22;58101;48.658;2.328;2023-03-01T05:35:15;0.90;84.70
70550;DHT22;58101;48.658;2.328;2023-03-01T05:37:46;0.90;85.50
70550;DHT22;58101;48.658;2.328;2023-03-01T05:40:15;0.90;85.70
70550;DHT22;58101;48.658;2.328;2023-03-01T05:42:46;0.90;85.70
70550;DHT22;58101;48.658;2.328;2023-03-01T05:45:12;0.90;86.00
70550;DHT22;58101;48.658;2.328;2023-03-01T05:47:43;0.90;86.60
70550;DHT22;58101;48.658;2.328;2023-03-01T05:52:50;0.80;87.80
70550;DHT22;58101;48.658;2.328;2023-03-01T05:55:18;0.80;87.80
70550;DHT22;58101;48.658;2.328;2023-03-01T05:57:43;0.80;88.10
70550;DHT22;58101;48.658;2.328;2023-03-01T06:00:10;0.80;89.10
70550;DHT22;58101;48.658;2.328;2023-03-01T06:02:36;0.80;88.90
70550;DHT22;58101;48.658;2.328;2023-03-01T06:05:04;0.80;89.10
70550;DHT22;58101;48.658;2.328;2023-03-01T06:07:30;0.80;89.00
70550;DHT22;58101;48.658;2.328;2023-03-01T06:09:55;0.80;89.40
70550;DHT22;58101;48.658;2.328;2023-03-01T06:12:21;0.80;90.00
70550;DHT22;58101;48.658;2.328;2023-03-01T06:14:46;0.80;89.60
70550;DHT22;58101;48.658;2.328;2023-03-01T06:17:15;0.80;90.00
70550;DHT22;58101;48.658;2.328;2023-03-01T06:19:40;0.80;90.30
70550;DHT22;58101;48.658;2.328;2023-03-01T06:22:06;0.80;90.40
70550;DHT22;58101;48.658;2.328;2023-03-01T06:24:32;0.80;90.50
70550;DHT22;58101;48.658;2.328;2023-03-01T06:26:58;0.80;90.10
70550;DHT22;58101;48.658;2.328;2023-03-01T06:29:24;0.80;90.20
70550;DHT22;58101;48.658;2.328;2023-03-01T06:31:49;0.80;90.40
70550;DHT22;58101;48.658;2.328;2023-03-01T06:34:15;0.80;90.00
70550;DHT22;58101;48.658;2.328;2023-03-01T06:36:41;0.80;90.20
70550;DHT22;58101;48.658;2.328;2023-03-01T06:39:07;0.80;90.10
70550;DHT22;58101;48.658;2.328;2023-03-01T06:41:33;0.80;89.80
70550;DHT22;58101;48.658;2.328;2023-03-01T06:43:59;0.80;89.90
70550;DHT22;58101;48.658;2.328;2023-03-01T06:46:25;0.90;90.00
70550;DHT22;58101;48.658;2.328;2023-03-01T06:48:51;0.80;90.30
70550;DHT22;58101;48.658;2.328;2023-03-01T06:51:16;0.90;90.70
70550;DHT22;58101;48.658;2.328;2023-03-01T06:53:42;0.90;90.30
70550;DHT22;58101;48.658;2.328;2023-03-01T06:56:07;0.90;90.10
70550;DHT22;58101;48.658;2.328;2023-03-01T06:58:33;0.90;90.30
70550;DHT22;58101;48.658;2.328;2023-03-01T07:00:59;0.90;90.00
70550;DHT22;58101;48.658;2.328;2023-03-01T07:03:25;1.10;90.10
70550;DHT22;58101;48.658;2.328;2023-03-01T07:05:51;1.00;89.40
70550;DHT22;58101;48.658;2.328;2023-03-01T07:08:18;1.00;88.70
70550;DHT22;58101;48.658;2.328;2023-03-01T07:10:44;1.10;88.20
70550;DHT22;58101;48.658;2.328;2023-03-01T07:13:09;1.10;88.80
70550;DHT22;58101;48.658;2.328;2023-03-01T07:15:35;1.10;88.00
70550;DHT22;58101;48.658;2.328;2023-03-01T07:18:01;1.10;88.10
70550;DHT22;58101;48.658;2.328;2023-03-01T07:20:26;1.20;88.00
70550;DHT22;58101;48.658;2.328;2023-03-01T07:22:53;1.30;87.70
70550;DHT22;58101;48.658;2.328;2023-03-01T07:25:19;1.30;87.60
70550;DHT22;58101;48.658;2.328;2023-03-01T07:27:52;1.30;86.90
70550;DHT22;58101;48.658;2.328;2023-03-01T07:30:18;1.40;86.10
70550;DHT22;58101;48.658;2.328;2023-03-01T07:32:44;1.40;85.80
70550;DHT22;58101;48.658;2.328;2023-03-01T07:35:10;1.50;86.50
70550;DHT22;58101;48.658;2.328;2023-03-01T07:37:36;1.50;85.10
70550;DHT22;58101;48.658;2.328;2023-03-01T07:40:02;1.70;84.90
70550;DHT22;58101;48.658;2.328;2023-03-01T07:42:28;1.70;83.80
70550;DHT22;58101;48.658;2.328;2023-03-01T07:44:53;1.70;83.00
70550;DHT22;58101;48.658;2.328;2023-03-01T07:47:19;1.70;82.60
70550;DHT22;58101;48.658;2.328;2023-03-01T07:49:44;1.70;81.50
70550;DHT22;58101;48.658;2.328;2023-03-01T07:52:11;1.80;81.70
70550;DHT22;58101;48.658;2.328;2023-03-01T07:54:37;1.90;81.30
70550;DHT22;58101;48.658;2.328;2023-03-01T07:57:03;2.00;80.70
70550;DHT22;58101;48.658;2.328;2023-03-01T07:59:29;2.10;79.50
70550;DHT22;58101;48.658;2.328;2023-03-01T08:01:58;2.20;79.60
70550;DHT22;58101;48.658;2.328;2023-03-01T08:04:24;2.50;79.40
70550;DHT22;58101;48.658;2.328;2023-03-01T08:06:52;2.80;79.20
70550;DHT22;58101;48.658;2.328;2023-03-01T08:09:18;3.30;76.00
70550;DHT22;58101;48.658;2.328;2023-03-01T08:11:44;4.20;68.70
70550;DHT22;58101;48.658;2.328;2023-03-01T08:14:09;5.30;62.00
70550;DHT22;58101;48.658;2.328;2023-03-01T08:16:36;6.60;57.10
70550;DHT22;58101;48.658;2.328;2023-03-01T08:19:06;8.00;51.80
70550;DHT22;58101;48.658;2.328;2023-03-01T08:21:32;9.20;48.30
70550;DHT22;58101;48.658;2.328;2023-03-01T08:24:03;9.80;45.10
70550;DHT22;58101;48.658;2.328;2023-03-01T08:26:29;10.70;44.40
70550;DHT22;58101;48.658;2.328;2023-03-01T08:28:55;11.70;42.30
70550;DHT22;58101;48.658;2.328;2023-03-01T08:31:27;12.50;40.50
70550;DHT22;58101;48.658;2.328;2023-03-01T08:33:56;13.30;38.90
70550;DHT22;58101;48.658;2.328;2023-03-01T08:36:34;14.00;36.20
70550;DHT22;58101;48.658;2.328;2023-03-01T08:39:00;14.50;34.30
70550;DHT22;58101;48.658;2.328;2023-03-01T08:41:27;15.10;34.10
70550;DHT22;58101;48.658;2.328;2023-03-01T08:43:53;15.60;33.00
70550;DHT22;58101;48.658;2.328;2023-03-01T08:46:27;15.70;30.60
70550;DHT22;58101;48.658;2.328;2023-03-01T08:48:54;15.90;31.10
70550;DHT22;58101;48.658;2.328;2023-03-01T08:51:23;16.00;30.60
70550;DHT22;58101;48.658;2.328;2023-03-01T08:53:49;15.80;30.30
70550;DHT22;58101;48.658;2.328;2023-03-01T08:56:16;16.40;30.30
70550;DHT22;58101;48.658;2.328;2023-03-01T08:58:46;16.70;29.80
70550;DHT22;58101;48.658;2.328;2023-03-01T09:01:15;17.10;29.40
70550;DHT22;58101;48.658;2.328;2023-03-01T09:03:41;17.10;28.20
70550;DHT22;58101;48.658;2.328;2023-03-01T09:06:07;17.20;28.20
70550;DHT22;58101;48.658;2.328;2023-03-01T09:08:44;17.10;28.40
70550;DHT22;58101;48.658;2.328;2023-03-01T09:11:13;17.40;28.40
70550;DHT22;58101;48.658;2.328;2023-03-01T09:13:40;17.80;27.80
70550;DHT22;58101;48.658;2.328;2023-03-01T09:16:07;17.70;27.40
70550;DHT22;58101;48.658;2.328;2023-03-01T09:18:33;17.70;27.20
70550;DHT22;58101;48.658;2.328;2023-03-01T09:23:43;17.10;27.50
70550;DHT22;58101;48.658;2.328;2023-03-01T09:26:20;17.30;28.20
70550;DHT22;58101;48.658;2.328;2023-03-01T09:28:48;17.80;27.90
70550;DHT22;58101;48.658;2.328;2023-03-01T09:31:15;18.20;26.90
70550;DHT22;58101;48.658;2.328;2023-03-01T09:33:42;18.20;27.00
70550;DHT22;58101;48.658;2.328;2023-03-01T09:36:13;18.50;26.80
70550;DHT22;58101;48.658;2.328;2023-03-01T09:38:39;19.00;26.50
70550;DHT22;58101;48.658;2.328;2023-03-01T09:46:47;18.00;27.20
70550;DHT22;58101;48.658;2.328;2023-03-01T09:49:33;18.20;26.60
70550;DHT22;58101;48.658;2.328;2023-03-01T09:52:03;18.50;26.80
70550;DHT22;58101;48.658;2.328;2023-03-01T09:54:30;19.00;26.20
70550;DHT22;58101;48.658;2.328;2023-03-01T09:57:18;18.90;25.70
70550;DHT22;58101;48.658;2.328;2023-03-01T10:05:34;19.30;25.20
70550;DHT22;58101;48.658;2.328;2023-03-01T10:08:17;19.50;25.00
70550;DHT22;58101;48.658;2.328;2023-03-01T10:10:47;20.00;24.70
70550;DHT22;58101;48.658;2.328;2023-03-01T10:15:56;19.60;24.70
70550;DHT22;58101;48.658;2.328;2023-03-01T10:18:27;19.50;24.90
70550;DHT22;58101;48.658;2.328;2023-03-01T10:21:00;19.30;24.90
70550;DHT22;58101;48.658;2.328;2023-03-01T10:23:30;18.60;25.20
70550;DHT22;58101;48.658;2.328;2023-03-01T10:26:02;18.50;26.20
70550;DHT22;58101;48.658;2.328;2023-03-01T10:29:07;18.70;25.70
70550;DHT22;58101;48.658;2.328;2023-03-01T10:31:44;19.00;25.30
70550;DHT22;58101;48.658;2.328;2023-03-01T10:36:42;20.40;25.00
70550;DHT22;58101;48.658;2.328;2023-03-01T10:47:20;21.60;23.10
70550;DHT22;58101;48.658;2.328;2023-03-01T10:50:04;21.90;23.10
70550;DHT22;58101;48.658;2.328;2023-03-01T10:52:36;22.00;22.50
70550;DHT22;58101;48.658;2.328;2023-03-01T10:57:42;21.90;22.70
70550;DHT22;58101;48.658;2.328;2023-03-01T11:00:15;22.20;22.50
70550;DHT22;58101;48.658;2.328;2023-03-01T11:02:48;21.90;22.10
70550;DHT22;58101;48.658;2.328;2023-03-01T11:05:23;21.40;22.80
70550;DHT22;58101;48.658;2.328;2023-03-01T11:07:53;21.10;23.00
70550;DHT22;58101;48.658;2.328;2023-03-01T11:12:51;20.70;23.80
70550;DHT22;58101;48.658;2.328;2023-03-01T11:15:23;20.50;23.80
70550;DHT22;58101;48.658;2.328;2023-03-01T11:17:50;20.10;24.30
70550;DHT22;58101;48.658;2.328;2023-03-01T11:22:53;19.30;25.00
70550;DHT22;58101;48.658;2.328;2023-03-01T11:25:26;18.90;25.20
70550;DHT22;58101;48.658;2.328;2023-03-01T11:27:53;18.40;26.00
70550;DHT22;58101;48.658;2.328;2023-03-01T11:30:35;18.20;26.40
70550;DHT22;58101;48.658;2.328;2023-03-01T11:33:19;18.30;26.40
70550;DHT22;58101;48.658;2.328;2023-03-01T11:36:00;18.30;26.10
70550;DHT22;58101;48.658;2.328;2023-03-01T11:38:28;18.50;26.30
70550;DHT22;58101;48.658;2.328;2023-03-01T11:41:16;18.80;25.70
70550;DHT22;58101;48.658;2.328;2023-03-01T11:49:27;18.80;25.70
70550;DHT22;58101;48.658;2.328;2023-03-01T11:52:42;18.40;26.10
70550;DHT22;58101;48.658;2.328;2023-03-01T11:55:21;17.90;26.70
70550;DHT22;58101;48.658;2.328;2023-03-01T12:31:49;12.30;36.20
70550;DHT22;58101;48.658;2.328;2023-03-01T12:45:35;11.90;37.00
70550;DHT22;58101;48.658;2.328;2023-03-01T12:48:31;12.00;37.00
70550;DHT22;58101;48.658;2.328;2023-03-01T12:50:57;12.00;36.90
70550;DHT22;58101;48.658;2.328;2023-03-01T12:53:44;12.00;37.20
70550;DHT22;58101;48.658;2.328;2023-03-01T12:56:11;12.10;36.90
70550;DHT22;58101;48.658;2.328;2023-03-01T12:58:42;12.10;37.00
70550;DHT22;58101;48.658;2.328;2023-03-01T13:01:36;12.10;37.80
70550;DHT22;58101;48.658;2.328;2023-03-01T13:17:55;11.60;38.70
70550;DHT22;58101;48.658;2.328;2023-03-01T13:23:09;11.60;39.20
70550;DHT22;58101;48.658;2.328;2023-03-01T13:30:58;11.40;38.60
70550;DHT22;58101;48.658;2.328;2023-03-01T13:35:55;11.40;39.40
70550;DHT22;58101;48.658;2.328;2023-03-01T13:44:21;11.10;39.50
70550;DHT22;58101;48.658;2.328;2023-03-01T13:49:45;11.10;40.30
70550;DHT22;58101;48.658;2.328;2023-03-01T13:58:05;10.70;40.40
70550;DHT22;58101;48.658;2.328;2023-03-01T14:00:39;10.60;41.10
70550;DHT22;58101;48.658;2.328;2023-03-01T14:03:19;10.40;41.70
70550;DHT22;58101;48.658;2.328;2023-03-01T14:08:28;10.30;41.80
70550;DHT22;58101;48.658;2.328;2023-03-01T14:16:59;10.30;42.20
70550;DHT22;58101;48.658;2.328;2023-03-01T14:19:28;10.20;42.30
70550;DHT22;58101;48.658;2.328;2023-03-01T14:24:29;10.10;42.70
70550;DHT22;58101;48.658;2.328;2023-03-01T14:26:57;10.00;42.70
70550;DHT22;58101;48.658;2.328;2023-03-01T14:29:34;9.80;42.30
70550;DHT22;58101;48.658;2.328;2023-03-01T14:32:20;9.90;43.00
70550;DHT22;58101;48.658;2.328;2023-03-01T14:34:48;9.90;43.50
70550;DHT22;58101;48.658;2.328;2023-03-01T14:39:45;10.00;43.40
70550;DHT22;58101;48.658;2.328;2023-03-01T14:42:12;10.00;43.10
70550;DHT22;58101;48.658;2.328;2023-03-01T14:44:45;10.00;43.40
70550;DHT22;58101;48.658;2.328;2023-03-01T14:47:19;10.00;43.50
70550;DHT22;58101;48.658;2.328;2023-03-01T14:49:57;10.10;43.60
70550;DHT22;58101;48.658;2.328;2023-03-01T14:52:29;10.10;43.70
70550;DHT22;58101;48.658;2.328;2023-03-01T14:54:57;10.10;43.60
70550;DHT22;58101;48.658;2.328;2023-03-01T14:57:25;10.10;44.50
70550;DHT22;58101;48.658;2.328;2023-03-01T14:59:53;10.10;43.50
70550;DHT22;58101;48.658;2.328;2023-03-01T15:02:23;10.00;43.10
70550;DHT22;58101;48.658;2.328;2023-03-01T15:04:52;10.10;43.50
70550;DHT22;58101;48.658;2.328;2023-03-01T15:07:44;10.00;43.70
70550;DHT22;58101;48.658;2.328;2023-03-01T15:10:23;10.00;43.90
70550;DHT22;58101;48.658;2.328;2023-03-01T15:12:50;10.10;43.70
70550;DHT22;58101;48.658;2.328;2023-03-01T15:18:18;10.10;44.00
70550;DHT22;58101;48.658;2.328;2023-03-01T15:20:45;10.10;43.50
70550;DHT22;58101;48.658;2.328;2023-03-01T15:23:23;10.10;43.40
70550;DHT22;58101;48.658;2.328;2023-03-01T15:25:51;10.00;43.50
70550;DHT22;58101;48.658;2.328;2023-03-01T15:31:22;9.80;43.70
70550;DHT22;58101;48.658;2.328;2023-03-01T15:33:49;9.80;44.10
70550;DHT22;58101;48.658;2.328;2023-03-01T15:36:42;9.80;44.10
70550;DHT22;58101;48.658;2.328;2023-03-01T15:39:32;9.70;44.20
70550;DHT22;58101;48.658;2.328;2023-03-01T15:42:09;9.60;44.60
70550;DHT22;58101;48.658;2.328;2023-03-01T15:44:37;9.60;45.00
70550;DHT22;58101;48.658;2.328;2023-03-01T15:47:28;9.60;45.10
70550;DHT22;58101;48.658;2.328;2023-03-01T15:49:54;9.50;46.30
70550;DHT22;58101;48.658;2.328;2023-03-01T15:52:25;9.40;44.80
70550;DHT22;58101;48.658;2.328;2023-03-01T15:55:06;9.40;45.20
70550;DHT22;58101;48.658;2.328;2023-03-01T15:57:32;9.30;45.20
70550;DHT22;58101;48.658;2.328;2023-03-01T16:00:10;9.20;45.40
70550;DHT22;58101;48.658;2.328;2023-03-01T16:02:40;9.10;45.40
70550;DHT22;58101;48.658;2.328;2023-03-01T16:05:09;9.00;45.60
70550;DHT22;58101;48.658;2.328;2023-03-01T16:07:43;9.00;45.90
70550;DHT22;58101;48.658;2.328;2023-03-01T16:10:09;8.80;46.30
70550;DHT22;58101;48.658;2.328;2023-03-01T16:12:35;8.80;46.40
70550;DHT22;58101;48.658;2.328;2023-03-01T16:15:21;8.90;46.60
70550;DHT22;58101;48.658;2.328;2023-03-01T16:17:47;8.60;46.70
70550;DHT22;58101;48.658;2.328;2023-03-01T16:20:12;8.50;47.10
70550;DHT22;58101;48.658;2.328;2023-03-01T16:22:53;8.50;47.40
70550;DHT22;58101;48.658;2.328;2023-03-01T16:25:20;8.50;47.50
70550;DHT22;58101;48.658;2.328;2023-03-01T16:27:48;8.40;47.40
70550;DHT22;58101;48.658;2.328;2023-03-01T16:30:16;8.40;47.60
70550;DHT22;58101;48.658;2.328;2023-03-01T16:32:44;8.40;47.80
70550;DHT22;58101;48.658;2.328;2023-03-01T16:35:12;8.30;48.20
70550;DHT22;58101;48.658;2.328;2023-03-01T16:37:39;8.20;48.50
70550;DHT22;58101;48.658;2.328;2023-03-01T16:40:06;8.10;49.50
70550;DHT22;58101;48.658;2.328;2023-03-01T16:42:37;8.10;48.70
70550;DHT22;58101;48.658;2.328;2023-03-01T16:45:03;8.00;48.60
70550;DHT22;58101;48.658;2.328;2023-03-01T16:47:29;8.00;49.10
70550;DHT22;58101;48.658;2.328;2023-03-01T16:49:55;8.10;49.30
70550;DHT22;58101;48.658;2.328;2023-03-01T16:52:22;7.90;49.30
70550;DHT22;58101;48.658;2.328;2023-03-01T16:54:48;7.90;49.90
70550;DHT22;58101;48.658;2.328;2023-03-01T16:57:14;7.80;50.00
70550;DHT22;58101;48.658;2.328;2023-03-01T16:59:40;7.80;50.30
70550;DHT22;58101;48.658;2.328;2023-03-01T17:02:08;7.70;50.50
70550;DHT22;58101;48.658;2.328;2023-03-01T17:04:36;7.70;50.80
70550;DHT22;58101;48.658;2.328;2023-03-01T17:07:02;7.70;51.00
70550;DHT22;58101;48.658;2.328;2023-03-01T17:09:27;7.50;50.90
70550;DHT22;58101;48.658;2.328;2023-03-01T17:11:53;7.50;51.30
70550;DHT22;58101;48.658;2.328;2023-03-01T17:14:20;7.40;51.30
70550;DHT22;58101;48.658;2.328;2023-03-01T17:16:46;7.30;51.50
70550;DHT22;58101;48.658;2.328;2023-03-01T17:19:11;7.30;51.70
70550;DHT22;58101;48.658;2.328;2023-03-01T17:21:45;7.30;52.00
70550;DHT22;58101;48.658;2.328;2023-03-01T17:24:12;7.20;52.30
70550;DHT22;58101;48.658;2.328;2023-03-01T17:26:37;7.20;52.40
70550;DHT22;58101;48.658;2.328;2023-03-01T17:29:04;7.10;52.60
70550;DHT22;58101;48.658;2.328;2023-03-01T17:31:30;7.10;52.60
70550;DHT22;58101;48.658;2.328;2023-03-01T17:33:56;7.10;52.90
70550;DHT22;58101;48.658;2.328;2023-03-01T17:36:22;7.00;53.00
70550;DHT22;58101;48.658;2.328;2023-03-01T17:38:48;7.00;53.10
70550;DHT22;58101;48.658;2.328;2023-03-01T17:41:14;6.90;53.30
70550;DHT22;58101;48.658;2.328;2023-03-01T17:43:46;6.80;53.60
70550;DHT22;58101;48.658;2.328;2023-03-01T17:46:12;6.90;53.70
70550;DHT22;58101;48.658;2.328;2023-03-01T17:48:38;6.80;53.70
70550;DHT22;58101;48.658;2.328;2023-03-01T17:51:08;6.70;53.90
70550;DHT22;58101;48.658;2.328;2023-03-01T17:53:34;6.70;53.90
70550;DHT22;58101;48.658;2.328;2023-03-01T17:56:02;6.70;54.20
70550;DHT22;58101;48.658;2.328;2023-03-01T17:58:29;6.60;54.40
70550;DHT22;58101;48.658;2.328;2023-03-01T18:00:54;6.60;54.60
70550;DHT22;58101;48.658;2.328;2023-03-01T18:03:20;6.50;54.50
70550;DHT22;58101;48.658;2.328;2023-03-01T18:05:46;6.50;54.60
70550;DHT22;58101;48.658;2.328;2023-03-01T18:08:12;6.40;54.70
70550;DHT22;58101;48.658;2.328;2023-03-01T18:10:38;6.40;54.60
70550;DHT22;58101;48.658;2.328;2023-03-01T18:13:04;6.30;54.80
70550;DHT22;58101;48.658;2.328;2023-03-01T18:15:31;6.30;55.00
70550;DHT22;58101;48.658;2.328;2023-03-01T18:17:56;6.30;55.00
70550;DHT22;58101;48.658;2.328;2023-03-01T18:20:22;6.20;54.70
70550;DHT22;58101;48.658;2.328;2023-03-01T18:22:48;6.20;55.00
70550;DHT22;58101;48.658;2.328;2023-03-01T18:25:15;6.20;55.30
70550;DHT22;58101;48.658;2.328;2023-03-01T18:27:41;6.20;55.20
70550;DHT22;58101;48.658;2.328;2023-03-01T18:30:07;6.10;55.40
70550;DHT22;58101;48.658;2.328;2023-03-01T18:32:33;6.10;55.40
70550;DHT22;58101;48.658;2.328;2023-03-01T18:34:59;6.10;55.80